createdAt,value
2023-05-08T00:02:13.405Z,14.50
2023-05-08T00:04:44.579Z,14.50
2023-05-08T00:07:11.852Z,14.50
2023-05-08T00:09:39.929Z,14.40
2023-05-08T00:12:07.079Z,14.40
2023-05-08T00:14:34.241Z,14.30
2023-05-08T00:17:02.534Z,14.10
2023-05-08T00:19:30.702Z,14.10
2023-05-08T00:21:57.756Z,14.10
2023-05-08T00:24:26.534Z,14.00
2023-05-08T00:26:53.627Z,14.10
2023-05-08T00:29:20.607Z,14.00
2023-05-08T00:31:47.652Z,14.00
2023-05-08T00:34:14.798Z,14.10
2023-05-08T00:36:41.744Z,14.00
2023-05-08T00:39:08.748Z,14.00
2023-05-08T00:41:36.889Z,13.90
2023-05-08T00:44:04.038Z,13.90
2023-05-08T00:46:31.564Z,13.90
2023-05-08T00:48:58.981Z,13.90
2023-05-08T00:51:27.124Z,13.90
2023-05-08T00:53:54.187Z,13.80
2023-05-08T00:56:22.747Z,13.80
2023-05-08T00:58:50.942Z,13.70
2023-05-08T01:01:18.740Z,13.70
2023-05-08T01:03:46.343Z,13.80
2023-05-08T01:06:13.441Z,13.70
2023-05-08T01:08:41.010Z,13.50
2023-05-08T01:11:33.092Z,13.50
2023-05-08T01:14:53.592Z,13.50
2023-05-08T01:17:20.743Z,13.40
2023-05-08T01:19:55.024Z,13.30
2023-05-08T01:22:34.524Z,13.30
2023-05-08T01:25:10.412Z,13.30
2023-05-08T01:28:17.235Z,13.30
2023-05-08T01:31:00.843Z,13.20
2023-05-08T01:33:36.010Z,13.30
2023-05-08T01:36:31.657Z,13.20
2023-05-08T01:39:15.227Z,13.30
2023-05-08T01:41:57.502Z,13.20
2023-05-08T01:44:28.887Z,13.20
2023-05-08T01:46:56.453Z,13.20
2023-05-08T01:49:42.505Z,13.20
2023-05-08T01:52:43.342Z,13.20
2023-05-08T01:55:14.369Z,13.20
2023-05-08T01:57:47.141Z,13.10
2023-05-08T02:00:17.634Z,13.10
2023-05-08T02:02:46.998Z,13.10
2023-05-08T02:05:14.944Z,13.00
2023-05-08T02:07:44.185Z,13.00
2023-05-08T02:10:14.069Z,13.00
2023-05-08T02:12:43.407Z,13.00
2023-05-08T02:15:13.636Z,13.00
2023-05-08T02:17:43.812Z,13.00
2023-05-08T02:20:15.086Z,13.00
2023-05-08T02:22:48.566Z,12.90
2023-05-08T02:25:16.330Z,12.90
2023-05-08T02:27:48.268Z,12.90
2023-05-08T02:30:17.008Z,12.90
2023-05-08T02:32:45.699Z,12.90
2023-05-08T02:35:18.271Z,12.80
2023-05-08T02:37:53.917Z,12.90
2023-05-08T02:40:22.945Z,12.80
2023-05-08T02:42:50.581Z,12.80
2023-05-08T02:45:20.796Z,12.80
2023-05-08T02:48:06.901Z,12.70
2023-05-08T02:50:41.315Z,12.70
2023-05-08T02:53:12.778Z,12.70
2023-05-08T02:56:00.467Z,12.80
2023-05-08T02:58:41.383Z,12.70
2023-05-08T03:01:20.631Z,12.70
2023-05-08T03:03:56.022Z,12.60
2023-05-08T03:06:26.504Z,12.60
2023-05-08T03:08:59.870Z,12.70
2023-05-08T03:11:39.264Z,12.60
2023-05-08T03:14:10.716Z,12.50
2023-05-08T03:16:40.038Z,12.50
2023-05-08T03:19:14.225Z,12.50
2023-05-08T03:21:43.228Z,12.50
2023-05-08T03:24:10.542Z,12.40
2023-05-08T03:26:37.694Z,12.40
2023-05-08T03:29:06.092Z,12.40
2023-05-08T03:31:34.105Z,12.40
2023-05-08T03:34:02.554Z,12.50
2023-05-08T03:36:30.975Z,12.50
2023-05-08T03:38:59.737Z,12.40
2023-05-08T03:41:27.176Z,12.20
2023-05-08T03:43:56.336Z,12.30
2023-05-08T03:46:24.676Z,12.20
2023-05-08T03:48:53.435Z,12.10
2023-05-08T03:51:22.061Z,12.10
2023-05-08T03:53:49.042Z,12.10
2023-05-08T03:56:16.256Z,12.00
2023-05-08T03:59:09.355Z,12.00
2023-05-08T04:02:01.005Z,12.00
2023-05-08T04:04:42.060Z,12.00
2023-05-08T04:07:24.020Z,11.90
2023-05-08T04:10:13.985Z,12.00
2023-05-08T04:12:52.107Z,12.00
2023-05-08T04:15:24.709Z,12.00
2023-05-08T04:18:04.116Z,12.00
2023-05-08T04:20:33.247Z,11.90
2023-05-08T04:23:02.457Z,11.90
2023-05-08T04:25:31.125Z,11.90
2023-05-08T04:27:58.909Z,11.90
2023-05-08T04:30:26.397Z,12.00
2023-05-08T04:32:54.173Z,12.00
2023-05-08T04:35:21.359Z,12.00
2023-05-08T04:37:48.742Z,12.00
2023-05-08T04:40:15.794Z,12.00
2023-05-08T04:42:47.786Z,12.00
2023-05-08T04:45:15.213Z,12.00
2023-05-08T04:47:42.311Z,12.10
2023-05-08T04:50:10.039Z,12.10
2023-05-08T04:52:37.556Z,12.10
2023-05-08T04:55:04.846Z,12.20
2023-05-08T04:57:31.842Z,12.30
2023-05-08T04:59:58.842Z,12.30
2023-05-08T05:02:29.007Z,12.30
2023-05-08T05:04:58.869Z,12.20
2023-05-08T05:07:25.916Z,12.30
2023-05-08T05:09:53.032Z,12.20
2023-05-08T05:12:20.070Z,12.20
2023-05-08T05:14:47.168Z,12.30
2023-05-08T05:17:14.323Z,12.20
2023-05-08T05:19:41.460Z,12.30
2023-05-08T05:22:08.629Z,12.30
2023-05-08T05:24:36.355Z,12.40
2023-05-08T05:27:04.787Z,12.40
2023-05-08T05:29:31.979Z,12.50
2023-05-08T05:31:59.201Z,12.60
2023-05-08T05:34:26.484Z,12.60
2023-05-08T05:36:53.609Z,12.50
2023-05-08T05:39:20.710Z,12.40
2023-05-08T05:41:47.954Z,12.40
2023-05-08T05:44:15.180Z,12.50
2023-05-08T05:46:44.280Z,12.50
2023-05-08T05:49:12.437Z,12.50
2023-05-08T05:51:39.615Z,12.40
2023-05-08T05:54:06.714Z,12.40
2023-05-08T05:56:33.731Z,12.30
2023-05-08T05:59:00.824Z,12.40
2023-05-08T06:01:29.269Z,12.40
2023-05-08T06:03:56.529Z,12.40
2023-05-08T06:06:23.844Z,12.40
2023-05-08T06:08:50.868Z,12.40
2023-05-08T06:11:18.050Z,12.50
2023-05-08T06:13:45.084Z,12.60
2023-05-08T06:16:12.283Z,12.60
2023-05-08T06:18:39.488Z,12.60
2023-05-08T06:21:06.652Z,12.60
2023-05-08T06:23:33.873Z,12.70
2023-05-08T06:26:00.955Z,12.80
2023-05-08T06:28:28.266Z,12.80
2023-05-08T06:30:55.332Z,12.80
2023-05-08T06:33:23.638Z,12.70
2023-05-08T06:35:52.491Z,12.70
2023-05-08T06:38:19.573Z,12.70
2023-05-08T06:40:47.249Z,12.60
2023-05-08T06:43:14.392Z,12.70
2023-05-08T06:45:43.235Z,12.80
2023-05-08T06:48:10.350Z,12.80
2023-05-08T06:50:40.954Z,12.80
2023-05-08T06:53:08.742Z,12.90
2023-05-08T06:55:35.715Z,12.90
2023-05-08T06:58:02.963Z,13.00
2023-05-08T07:00:30.042Z,13.10
2023-05-08T07:02:57.114Z,13.20
2023-05-08T07:05:24.442Z,13.30
2023-05-08T07:07:54.179Z,13.30
2023-05-08T07:10:23.075Z,13.40
2023-05-08T07:12:50.390Z,13.30
2023-05-08T07:15:26.057Z,13.20
2023-05-08T07:17:54.348Z,13.40
2023-05-08T07:20:21.796Z,13.60
2023-05-08T07:22:49.026Z,13.60
2023-05-08T07:25:16.415Z,13.50
2023-05-08T07:27:43.656Z,13.50
2023-05-08T07:30:11.346Z,13.50
2023-05-08T07:32:39.618Z,13.40
2023-05-08T07:35:11.084Z,13.60
2023-05-08T07:37:39.485Z,13.70
2023-05-08T07:40:07.334Z,13.60
2023-05-08T07:42:44.419Z,13.50
2023-05-08T07:45:13.385Z,13.50
2023-05-08T07:47:50.011Z,13.60
2023-05-08T07:50:17.203Z,13.50
2023-05-08T07:52:44.325Z,13.50
2023-05-08T07:55:11.736Z,13.40
2023-05-08T07:57:44.050Z,13.40
2023-05-08T08:00:15.504Z,13.40
2023-05-08T08:02:44.015Z,13.30
2023-05-08T08:05:11.564Z,13.40
2023-05-08T08:07:38.942Z,13.40
2023-05-08T08:10:06.835Z,13.50
2023-05-08T08:12:33.916Z,13.50
2023-05-08T08:15:00.918Z,13.50
2023-05-08T08:17:29.059Z,13.50
2023-05-08T08:19:57.365Z,13.60
2023-05-08T08:22:26.053Z,13.70
2023-05-08T08:24:55.658Z,13.80
2023-05-08T08:27:23.561Z,13.90
2023-05-08T08:29:52.508Z,14.00
2023-05-08T08:32:25.804Z,14.10
2023-05-08T08:34:52.899Z,14.20
2023-05-08T08:37:19.936Z,14.20
2023-05-08T08:39:48.467Z,14.10
2023-05-08T08:42:15.782Z,14.20
2023-05-08T08:44:43.130Z,14.40
2023-05-08T08:47:13.933Z,14.60
2023-05-08T08:49:47.367Z,14.90
2023-05-08T08:52:46.794Z,15.00
2023-05-08T08:55:17.897Z,15.00
2023-05-08T08:57:59.236Z,14.90
2023-05-08T09:00:28.865Z,14.90
2023-05-08T09:02:56.254Z,15.10
2023-05-08T09:05:26.882Z,15.10
2023-05-08T09:07:57.778Z,15.10
2023-05-08T09:10:25.829Z,15.10
2023-05-08T09:12:53.257Z,15.00
2023-05-08T09:15:20.537Z,14.90
2023-05-08T09:17:47.751Z,14.90
2023-05-08T09:20:16.271Z,15.00
2023-05-08T09:22:44.693Z,15.10
2023-05-08T09:25:11.925Z,15.00
2023-05-08T09:27:39.604Z,15.00
2023-05-08T09:30:08.716Z,14.80
2023-05-08T09:32:40.947Z,14.60
2023-05-08T09:35:09.287Z,14.60
2023-05-08T09:37:41.130Z,14.50
2023-05-08T09:40:15.231Z,14.40
2023-05-08T09:42:42.480Z,14.40
2023-05-08T09:45:11.516Z,14.40
2023-05-08T09:47:39.832Z,14.30
2023-05-08T09:50:11.157Z,14.30
2023-05-08T09:52:45.974Z,14.20
2023-05-08T09:55:13.035Z,14.20
2023-05-08T09:57:52.870Z,14.30
2023-05-08T10:00:20.607Z,14.40
2023-05-08T10:02:59.642Z,14.50
2023-05-08T10:05:27.673Z,14.40
2023-05-08T10:07:56.261Z,14.40
2023-05-08T10:10:31.120Z,14.40
2023-05-08T10:12:59.144Z,14.40
2023-05-08T10:15:31.256Z,14.30
2023-05-08T10:18:07.408Z,14.20
2023-05-08T10:20:42.047Z,14.20
2023-05-08T10:23:14.302Z,14.40
2023-05-08T10:25:46.454Z,14.70
2023-05-08T10:28:16.742Z,14.80
2023-05-08T10:30:48.970Z,14.90
2023-05-08T10:33:21.077Z,15.00
2023-05-08T10:35:49.012Z,15.00
2023-05-08T10:38:17.377Z,15.00
2023-05-08T10:40:44.951Z,15.00
2023-05-08T10:43:12.633Z,15.20
2023-05-08T10:45:39.942Z,15.40
2023-05-08T10:48:25.047Z,15.50
2023-05-08T10:51:08.390Z,15.40
2023-05-08T10:53:39.950Z,15.30
2023-05-08T10:56:07.473Z,15.40
2023-05-08T10:58:37.350Z,15.50
2023-05-08T11:01:07.855Z,15.50
2023-05-08T11:03:46.614Z,15.50
2023-05-08T11:06:14.531Z,15.30
2023-05-08T11:08:48.085Z,15.40
2023-05-08T11:11:27.061Z,15.60
2023-05-08T11:14:09.811Z,15.60
2023-05-08T11:16:55.245Z,15.80
2023-05-08T11:19:27.127Z,16.20
2023-05-08T11:22:12.099Z,16.40
2023-05-08T11:24:41.248Z,16.40
2023-05-08T11:27:08.461Z,16.40
2023-05-08T11:29:36.401Z,16.30
2023-05-08T11:32:03.554Z,16.30
2023-05-08T11:34:43.263Z,16.30
2023-05-08T11:37:18.786Z,16.30
2023-05-08T11:39:46.596Z,16.40
2023-05-08T11:42:25.924Z,16.50
2023-05-08T11:45:10.803Z,16.60
2023-05-08T11:47:46.902Z,16.70
2023-05-08T11:50:14.555Z,16.80
2023-05-08T11:52:43.589Z,16.80
2023-05-08T11:55:13.928Z,16.90
2023-05-08T11:57:41.350Z,17.20
2023-05-08T12:00:10.277Z,17.30
2023-05-08T12:02:39.546Z,17.00
2023-05-08T12:05:11.295Z,16.70
2023-05-08T12:07:46.847Z,16.70
2023-05-08T12:10:16.117Z,16.60
2023-05-08T12:12:45.271Z,16.70
2023-05-08T12:15:14.477Z,16.70
2023-05-08T12:17:42.467Z,16.70
2023-05-08T12:20:17.949Z,16.80
2023-05-08T12:22:53.165Z,16.80
2023-05-08T12:25:20.784Z,16.80
2023-05-08T12:27:48.185Z,16.70
2023-05-08T12:30:16.618Z,16.50
2023-05-08T12:32:44.731Z,16.40
2023-05-08T12:35:13.261Z,16.40
2023-05-08T12:37:40.870Z,16.40
2023-05-08T12:40:09.029Z,16.20
2023-05-08T12:42:46.568Z,16.10
2023-05-08T12:45:24.446Z,16.00
2023-05-08T12:47:53.390Z,16.00
2023-05-08T12:50:22.383Z,16.10
2023-05-08T12:52:51.792Z,16.20
2023-05-08T12:55:29.949Z,16.30
2023-05-08T12:58:14.325Z,16.40
2023-05-08T13:00:51.589Z,16.50
2023-05-08T13:03:29.942Z,16.50
2023-05-08T13:05:58.710Z,16.50
2023-05-08T13:08:35.738Z,16.40
2023-05-08T13:11:04.841Z,16.20
2023-05-08T13:13:34.424Z,16.10
2023-05-08T13:16:06.710Z,16.00
2023-05-08T13:18:36.921Z,15.80
2023-05-08T13:21:04.294Z,15.80
2023-05-08T13:23:31.495Z,15.80
2023-05-08T13:25:58.542Z,15.80
2023-05-08T13:28:25.613Z,15.90
2023-05-08T13:30:52.675Z,16.00
2023-05-08T13:33:19.659Z,16.10
2023-05-08T13:35:46.711Z,16.20
2023-05-08T13:38:13.742Z,16.10
2023-05-08T13:40:40.751Z,16.00
2023-05-08T13:43:07.850Z,16.00
2023-05-08T13:45:35.150Z,15.90
2023-05-08T13:48:02.175Z,15.90
2023-05-08T13:50:29.421Z,15.90
2023-05-08T13:52:56.554Z,15.90
2023-05-08T13:55:23.820Z,16.00
2023-05-08T13:57:51.297Z,16.00
2023-05-08T14:00:18.690Z,16.00
2023-05-08T14:02:46.320Z,16.10
2023-05-08T14:05:13.805Z,16.20
2023-05-08T14:07:41.616Z,16.30
2023-05-08T14:10:09.024Z,16.50
2023-05-08T14:12:36.669Z,16.60
2023-05-08T14:15:07.760Z,16.80
2023-05-08T14:17:35.056Z,16.80
2023-05-08T14:20:02.167Z,16.90
2023-05-08T14:22:29.219Z,16.90
2023-05-08T14:24:56.380Z,16.90
2023-05-08T14:27:23.421Z,16.80
2023-05-08T14:29:50.703Z,16.60
2023-05-08T14:32:17.811Z,16.50
2023-05-08T14:34:44.984Z,16.30
2023-05-08T14:37:13.184Z,16.40
2023-05-08T14:39:40.363Z,16.50
2023-05-08T14:42:22.174Z,16.70
2023-05-08T14:44:50.498Z,16.70
2023-05-08T14:47:17.824Z,16.80
2023-05-08T14:49:44.818Z,16.80
2023-05-08T14:52:11.927Z,16.90
2023-05-08T14:54:39.211Z,16.90
2023-05-08T14:57:06.721Z,17.00
2023-05-08T14:59:33.835Z,16.90
2023-05-08T15:02:01.077Z,16.70
2023-05-08T15:04:28.328Z,16.60
2023-05-08T15:06:55.463Z,16.50
2023-05-08T15:09:22.525Z,16.70
2023-05-08T15:11:49.691Z,16.70
2023-05-08T15:14:16.836Z,16.80
2023-05-08T15:16:43.933Z,16.90
2023-05-08T15:19:12.139Z,16.90
2023-05-08T15:21:39.152Z,16.90
2023-05-08T15:24:06.734Z,16.80
2023-05-08T15:26:33.729Z,16.80
2023-05-08T15:29:00.920Z,16.60
2023-05-08T15:31:28.453Z,16.50
2023-05-08T15:33:55.740Z,16.40
2023-05-08T15:36:22.865Z,16.30
2023-05-08T15:38:49.923Z,16.20
2023-05-08T15:41:16.962Z,16.30
2023-05-08T15:43:45.533Z,16.30
2023-05-08T15:46:12.966Z,16.30
2023-05-08T15:48:40.092Z,16.30
2023-05-08T15:51:07.302Z,16.20
2023-05-08T15:53:35.394Z,16.20
2023-05-08T15:56:02.534Z,16.10
2023-05-08T15:58:29.502Z,16.10
2023-05-08T16:00:57.805Z,16.10
2023-05-08T16:03:25.262Z,16.10
2023-05-08T16:05:52.387Z,16.10
2023-05-08T16:08:19.507Z,16.00
2023-05-08T16:10:46.777Z,16.00
2023-05-08T16:13:13.914Z,16.00
2023-05-08T16:15:41.430Z,16.00
2023-05-08T16:18:08.678Z,16.00
2023-05-08T16:20:36.434Z,16.10
2023-05-08T16:23:03.753Z,16.10
2023-05-08T16:25:30.995Z,16.10
2023-05-08T16:27:58.026Z,16.10
2023-05-08T16:30:25.330Z,16.10
2023-05-08T16:32:52.591Z,16.10
2023-05-08T16:35:19.885Z,16.10
2023-05-08T16:37:46.989Z,16.10
2023-05-08T16:40:14.131Z,16.10
2023-05-08T16:42:41.406Z,16.00
2023-05-08T16:45:08.986Z,16.00
2023-05-08T16:47:38.957Z,16.00
2023-05-08T16:50:06.377Z,16.00
2023-05-08T16:52:33.561Z,15.90
2023-05-08T16:55:00.654Z,15.90
2023-05-08T16:57:28.700Z,15.80
2023-05-08T16:59:55.752Z,15.80
2023-05-08T17:02:22.928Z,15.70
2023-05-08T17:04:50.459Z,15.70
2023-05-08T17:07:18.126Z,15.60
2023-05-08T17:09:45.908Z,15.60
2023-05-08T17:12:12.975Z,15.60
2023-05-08T17:14:40.791Z,15.60
2023-05-08T17:17:08.199Z,15.60
2023-05-08T17:19:35.216Z,15.70
2023-05-08T17:22:02.684Z,15.80
2023-05-08T17:24:30.988Z,15.70
2023-05-08T17:26:58.448Z,15.80
2023-05-08T17:29:25.641Z,15.80
2023-05-08T17:31:52.892Z,15.80
2023-05-08T17:34:20.456Z,15.70
2023-05-08T17:36:47.606Z,15.70
2023-05-08T17:39:14.978Z,15.60
2023-05-08T17:41:41.997Z,15.50
2023-05-08T17:44:09.038Z,15.40
2023-05-08T17:46:36.096Z,15.40
2023-05-08T17:49:03.180Z,15.30
2023-05-08T17:51:31.250Z,15.30
2023-05-08T17:53:58.373Z,15.30
2023-05-08T17:56:25.919Z,15.30
2023-05-08T17:58:53.684Z,15.20
2023-05-08T18:01:20.907Z,15.20
2023-05-08T18:03:48.630Z,15.30
2023-05-08T18:06:18.718Z,15.20
2023-05-08T18:08:46.765Z,15.20
2023-05-08T18:11:17.592Z,15.20
2023-05-08T18:13:44.735Z,15.20
2023-05-08T18:16:13.670Z,15.10
2023-05-08T18:18:40.853Z,15.10
2023-05-08T18:21:08.807Z,15.10
2023-05-08T18:23:36.259Z,15.00
2023-05-08T18:26:03.850Z,14.90
2023-05-08T18:28:30.987Z,14.90
2023-05-08T18:30:58.238Z,14.80
2023-05-08T18:33:25.343Z,14.70
2023-05-08T18:35:52.575Z,14.60
2023-05-08T18:38:19.623Z,14.50
2023-05-08T18:40:46.903Z,14.50
2023-05-08T18:43:14.962Z,14.40
2023-05-08T18:45:42.181Z,14.40
2023-05-08T18:48:10.095Z,14.40
2023-05-08T18:50:37.453Z,14.30
2023-05-08T18:53:04.545Z,14.30
2023-05-08T18:55:31.624Z,14.30
2023-05-08T18:57:59.052Z,14.20
2023-05-08T19:00:26.305Z,14.20
2023-05-08T19:02:53.580Z,14.20
2023-05-08T19:05:20.882Z,14.10
2023-05-08T19:07:47.941Z,14.10
2023-05-08T19:10:15.119Z,14.00
2023-05-08T19:12:43.051Z,14.00
2023-05-08T19:15:13.928Z,14.10
2023-05-08T19:17:41.530Z,14.10
2023-05-08T19:20:45.649Z,14.10
2023-05-08T19:23:45.026Z,14.00
2023-05-08T19:35:59.608Z,13.80
2023-05-08T19:38:29.097Z,13.70
2023-05-08T19:40:58.153Z,13.70
2023-05-08T19:43:31.442Z,13.80
2023-05-08T19:46:03.615Z,13.80
2023-05-08T19:48:30.905Z,13.70
2023-05-08T19:50:57.905Z,13.70
2023-05-08T19:53:25.404Z,13.80
2023-05-08T19:55:52.476Z,13.80
2023-05-08T19:58:19.563Z,13.70
2023-05-08T20:03:16.580Z,13.70
2023-05-08T20:05:43.648Z,13.70
2023-05-08T20:08:10.668Z,13.70
2023-05-08T20:10:37.679Z,13.70
2023-05-08T20:13:05.749Z,13.70
2023-05-08T20:15:32.890Z,13.70
2023-05-08T20:17:59.986Z,13.70
2023-05-08T20:20:29.418Z,13.60
2023-05-08T20:22:56.446Z,13.60
2023-05-08T20:25:23.641Z,13.60
2023-05-08T20:27:50.706Z,13.60
2023-05-08T20:30:17.949Z,13.60
2023-05-08T20:32:45.044Z,13.50
2023-05-08T20:35:12.541Z,13.50
2023-05-08T20:37:44.485Z,13.50
2023-05-08T20:40:12.377Z,13.50
2023-05-08T20:42:41.325Z,13.40
2023-05-08T20:45:11.943Z,13.40
2023-05-08T20:47:38.998Z,13.40
2023-05-08T20:50:06.922Z,13.40
2023-05-08T20:52:35.217Z,13.40
2023-05-08T20:55:03.961Z,13.40
2023-05-08T20:57:31.007Z,13.40
2023-05-08T20:59:58.020Z,13.40
2023-05-08T21:02:25.432Z,13.30
2023-05-08T21:04:53.105Z,13.40
2023-05-08T21:07:20.189Z,13.30
2023-05-08T21:09:47.367Z,13.30
2023-05-08T21:12:14.432Z,13.30
2023-05-08T21:14:44.037Z,13.30
2023-05-08T21:17:11.070Z,13.30
2023-05-08T21:19:38.460Z,13.30
2023-05-08T21:22:05.481Z,13.20
2023-05-08T21:24:32.472Z,13.20
2023-05-08T21:26:59.868Z,13.20
2023-05-08T21:29:27.107Z,13.10
2023-05-08T21:31:54.275Z,13.00
2023-05-08T21:34:24.211Z,12.90
2023-05-08T21:36:51.418Z,12.80
2023-05-08T21:39:18.451Z,12.80
2023-05-08T21:41:46.186Z,12.70
2023-05-08T21:44:13.244Z,12.60
2023-05-08T21:46:40.507Z,12.50
2023-05-08T21:49:07.649Z,12.40
2023-05-08T21:51:35.794Z,12.30
2023-05-08T21:54:02.853Z,12.20
2023-05-08T21:56:29.814Z,12.20
2023-05-08T21:58:56.937Z,12.10
2023-05-08T22:01:23.965Z,12.10
2023-05-08T22:03:51.646Z,12.10
2023-05-08T22:06:18.763Z,12.00
2023-05-08T22:08:46.118Z,12.00
2023-05-08T22:11:13.189Z,12.10
2023-05-08T22:13:40.269Z,12.00
2023-05-08T22:16:07.935Z,12.00
2023-05-08T22:18:35.083Z,11.90
2023-05-08T22:21:02.343Z,11.80
2023-05-08T22:23:29.476Z,11.80
2023-05-08T22:25:56.451Z,11.80
2023-05-08T22:28:23.543Z,11.70
2023-05-08T22:30:50.567Z,11.60
2023-05-08T22:33:17.593Z,11.60
2023-05-08T22:35:44.593Z,11.60
2023-05-08T22:38:11.709Z,11.60
2023-05-08T22:40:38.948Z,11.60
2023-05-08T22:43:06.066Z,11.60
2023-05-08T22:45:33.233Z,11.60
2023-05-08T22:48:00.431Z,11.70
2023-05-08T22:50:27.868Z,11.70
2023-05-08T22:52:54.986Z,11.70
2023-05-08T22:55:21.993Z,11.70
2023-05-08T22:57:49.151Z,11.70
2023-05-08T23:00:16.543Z,11.60
2023-05-08T23:02:43.585Z,11.70
2023-05-08T23:05:10.632Z,11.70
2023-05-08T23:07:37.688Z,11.60
2023-05-08T23:10:05.096Z,11.70
2023-05-08T23:12:32.199Z,11.70
2023-05-08T23:14:59.297Z,11.70
2023-05-08T23:17:26.567Z,11.70
2023-05-08T23:19:53.592Z,11.70
2023-05-08T23:22:20.730Z,11.70
2023-05-08T23:24:48.855Z,11.60
2023-05-08T23:27:15.936Z,11.60
2023-05-08T23:29:42.920Z,11.60
2023-05-08T23:32:10.008Z,11.60
2023-05-08T23:34:37.154Z,11.70
2023-05-08T23:37:04.186Z,11.60
2023-05-08T23:39:37.898Z,11.60
2023-05-08T23:42:05.079Z,11.50
2023-05-08T23:44:32.295Z,11.50
2023-05-08T23:46:59.368Z,11.40
2023-05-08T23:49:26.720Z,11.40
2023-05-08T23:51:53.690Z,11.40
2023-05-08T23:54:21.180Z,11.40
2023-05-08T23:56:48.769Z,11.40
2023-05-08T23:59:15.798Z,11.50
